Aviation Digital Data Service (ADDS)

Output produced by METARs form (0048 UTC 21 July 2017)
found at http://aviationweather.gov/adds/metars/
 
KBWI 202342Z 2100/2206 23005KT P6SM SCT070 
     FM210700 27004KT P6SM SCT070